Ana Sayfa
METAR-TAF:

METAR-TAF

Havaalanları :

N'Djamena, Çad

Enlem: 12-08N, Boylam: 015-02E, yükseklik: 295 m

Güncel hava durumu gözlemi

Rapor saat 16:00 UTC de 1 saat ve 2 dakika önce yapıldı.
Rüzgar doğu/kuzeydoğudan 14 kt
Sıcaklık 35°C
Nem 9%
Basınç 1009 hPa
Görüş mesafesi: 5000 m
Savrulan toz

METAR: FTTJ 141600Z 06014KT 5000 BLDU NSC 35/M02 Q1009 NOSIG

Saat: 18:02 (17:02 UTC)

Tahmin

Rapor saat 11:00 UTC de 6 saat ve 2 dakika önce yapıldı.
Ayın 14'si saat 12 UTC'den ayın 15'si saat 18 UTC'ye kadar geçerli Tahmin
Rüzgar doğu/kuzeydoğudan 15 kt
Görüş mesafesi: 6000 m
Dönüşüyor
ayın 14'si saat 16 UTC'den ayın 14'si saat 18 UTC'ye kadar
Rüzgar kuzeydan 8 kt
Dönüşüyor
ayın 15'si saat 06 UTC'den ayın 15'si saat 08 UTC'ye kadar
Rüzgar doğudan 14 kt
Geçici
ayın 15'si saat 08 UTC'den ayın 15'si saat 14 UTC'ye kadar
Görüş mesafesi: 4000 m
Toz Pusu

TAF: FTTJ 141100Z 1412/1518 06015KT 6000 NSC BECMG 1416/1418 36008KT BECMG 1506/1508 08014KT TEMPO 1508/1514 4000 HZ

4.000'den fazla havaalanı için hava durumu gözlemleri ve tahminleri (METAR ve TAF raporları).

Kullanılabilir istasyonlar harita üzerinde sarı ve kırmızı noktalarla gösterilir.

İstasyonun adını görmek için fareyi noktanın üzerinde gezdirin.

Sonrasında hava gözlem ve tahminlerini görmek için tıklayın.

Haritayı değiştirmek için: yaklaştırmak için siyah artı işaretli yeşil düğmeye ve uzaklaştırmak için de eksi işaretli düğmeye hızla tıklayın; bitişik haritalar için yeşil okları kullanın.


METAR-TAF: